NZWN Airport Information

Runway Information
Runway 16 Length 6352 ft width 148 ft
Elevation 41 ft Threshold 210 ft Heading 183
Runway 34 Length 6352 ft Width 148 ft
Elevation 23 ft Threshold 210 ft Heading 3
Airport Frequencies
Type APP Name APP Frequency 122.3 MHZ
Type ATIS Name ATIS Frequency 126.9 MHZ
Type GND Name GND Frequency 121.9 MHZ
Type TWR Name TWR Frequency 118.8 MHZ
Airport Navaids
Type NDB Name Newlands Frequency 358 KHZ
Type NDB Name Titahi Bay Frequency 234 KHZ
Type VOR-DME Name Wellington Frequency 112300 KHZ
Type NDB Name Wellington Frequency 298 KHZ
Airport Weather Information & NOTAM
ADDS - METARS form results

(0516 UTC 28 May 2022)
Data provider http://aviationweather.gov/metar/data/
 
METAR text: NZWN 280500Z AUTO 02016KT 9999 FEW023/// BKN032/// 13/09 Q1024 NOSIG
Conditions at: NZWN (WELLINGTON INTL , NZ) observed 0500 UTC 28 May 2022
Temperature: 13.0°C (55°F)
Dewpoint: 9.0°C (48°F) [RH = 77%]
Pressure (altimeter): 30.24 inches Hg (1024.0 mb)
Winds: from the NNE (20 degrees) at 18 MPH (16 knots; 8.2 m/s)
Visibility: 6 or more miles (10+ km)
Ceiling: 3200 feet AGL
Clouds: few clouds at 2300 feet AGL
broken clouds at 3200 feet AGL
Weather: no significant weather observed at this time

METAR text: NZWN 280430Z AUTO 02014KT 9999 BKN024/// BKN030/// 13/09 Q1025 NOSIG
Conditions at: NZWN (WELLINGTON INTL , NZ) observed 0430 UTC 28 May 2022
Temperature: 13.0°C (55°F)
Dewpoint: 9.0°C (48°F) [RH = 77%]
Pressure (altimeter): 30.27 inches Hg (1025.0 mb)
Winds: from the NNE (20 degrees) at 16 MPH (14 knots; 7.2 m/s)
Visibility: 6 or more miles (10+ km)
Ceiling: 2400 feet AGL
Clouds: broken clouds at 2400 feet AGL
broken clouds at 3000 feet AGL
Weather: no significant weather observed at this time

Forecast for: NZWN (WELLINGTON INTL , NZ)
Text: TAF NZWN 280503Z 2806/2906 36015KT 9999 SCT025
Forecast period: 0600 UTC 28 May 2022 to 0600 UTC 29 May 2022
Forecast type: FROM: standard forecast or significant change
Winds: from the N (360 degrees) at 17 MPH (15 knots; 7.7 m/s)
Visibility: 6 or more miles (10+ km)
Ceiling: at least 12,000 feet AGL
Clouds: scattered clouds at 2500 feet AGL
Weather: no significant weather forecast for this period